<?xml version='1.0' encoding='UTF-8'?><gpx version="1.1" creator="JPX - https://github.com/jenetics/jpx" xmlns="http://www.topografix.com/GPX/1/1"><trk><trkseg><trkpt lat="44.911292316672956" lon="9.087093180736236"><ele>539.0</ele><time>2026-04-11T09:35:43.999Z</time></trkpt><trkpt lat="44.91127669803835" lon="9.087220531904972"><ele>539.0</ele><time>2026-04-11T09:35:44.999Z</time></trkpt><trkpt lat="44.911299938419134" lon="9.087335452424005"><ele>539.0</ele><time>2026-04-11T09:35:46.999Z</time></trkpt><trkpt lat="44.91128477863209" lon="9.087469526794672"><ele>539.0</ele><time>2026-04-11T09:35:48.999Z</time></trkpt><trkpt lat="44.91130256461306" lon="9.087592140981524"><ele>539.0</ele><time>2026-04-11T09:35:50.999Z</time></trkpt><trkpt lat="44.91129171067357" lon="9.087693174492815"><ele>539.0</ele><time>2026-04-11T09:35:53.999Z</time></trkpt><trkpt lat="44.91126743660076" lon="9.087796227813875"><ele>540.2</ele><time>2026-04-11T09:35:55.999Z</time></trkpt><trkpt lat="44.91121203344327" lon="9.087953812017"><ele>541.4</ele><time>2026-04-11T09:35:57.999Z</time></trkpt><trkpt lat="44.91113245925789" lon="9.088056754595902"><ele>542.6</ele><time>2026-04-11T09:35:59.999Z</time></trkpt><trkpt lat="44.91106251899459" lon="9.08807226355444"><ele>543.8</ele><time>2026-04-11T09:36:01.999Z</time></trkpt><trkpt lat="44.910991832605475" lon="9.088083274087335"><ele>545.0</ele><time>2026-04-11T09:36:02.999Z</time></trkpt><trkpt lat="44.91095815203715" lon="9.088188687500079"><ele>543.2</ele><time>2026-04-11T09:36:06.999Z</time></trkpt><trkpt lat="44.91102511006764" lon="9.088314491653351"><ele>541.4</ele><time>2026-04-11T09:36:21.998Z</time></trkpt><trkpt lat="44.91113406409338" lon="9.088312040923652"><ele>539.6</ele><time>2026-04-11T09:36:49.997Z</time></trkpt><trkpt lat="44.91121447145932" lon="9.088296359957683"><ele>537.8</ele><time>2026-04-11T09:36:51.997Z</time></trkpt><trkpt lat="44.91130296798673" lon="9.088287399067351"><ele>536.0</ele><time>2026-04-11T09:36:53.997Z</time></trkpt><trkpt lat="44.91138027661875" lon="9.08830288963454"><ele>536.0</ele><time>2026-04-11T09:36:56.997Z</time></trkpt><trkpt lat="44.911458931343304" lon="9.088291111192637"><ele>536.0</ele><time>2026-04-11T09:36:57.997Z</time></trkpt><trkpt lat="44.91154508880935" lon="9.088242570346825"><ele>536.0</ele><time>2026-04-11T09:36:59.997Z</time></trkpt><trkpt lat="44.911630089954535" lon="9.088193220724976"><ele>536.0</ele><time>2026-04-11T09:37:02.997Z</time></trkpt><trkpt lat="44.91172132940099" lon="9.088138208583837"><ele>536.0</ele><time>2026-04-11T09:37:04.997Z</time></trkpt><trkpt lat="44.91179302931169" lon="9.088069078422512"><ele>535.5</ele><time>2026-04-11T09:37:06.997Z</time></trkpt><trkpt lat="44.91186576629229" lon="9.088023556452198"><ele>535.0</ele><time>2026-04-11T09:37:09.997Z</time></trkpt><trkpt lat="44.911957913010305" lon="9.087945269947864"><ele>534.5</ele><time>2026-04-11T09:37:11.997Z</time></trkpt><trkpt lat="44.91202018540263" lon="9.087880332286392"><ele>534.0</ele><time>2026-04-11T09:37:13.997Z</time></trkpt><trkpt lat="44.91208158484306" lon="9.087816426309985"><ele>533.5</ele><time>2026-04-11T09:37:15.997Z</time></trkpt><trkpt lat="44.91215544238038" lon="9.087811884370483"><ele>533.0</ele><time>2026-04-11T09:37:34Z</time></trkpt><trkpt lat="44.912101380317544" lon="9.087904595798427"><ele>533.0</ele><time>2026-04-11T09:38:00.999Z</time></trkpt><trkpt lat="44.91201506406245" lon="9.0880007644033"><ele>533.0</ele><time>2026-04-11T09:38:02.999Z</time></trkpt><trkpt lat="44.91196613236722" lon="9.088062039547793"><ele>533.0</ele><time>2026-04-11T09:38:03.999Z</time></trkpt><trkpt lat="44.91187003308665" lon="9.088120758957189"><ele>533.0</ele><time>2026-04-11T09:38:04.999Z</time></trkpt><trkpt lat="44.91179955192061" lon="9.088169357412182"><ele>533.0</ele><time>2026-04-11T09:38:05.999Z</time></trkpt><trkpt lat="44.911742997619804" lon="9.088227023006299"><ele>533.0</ele><time>2026-04-11T09:38:06.999Z</time></trkpt><trkpt lat="44.91164487172817" lon="9.088280651953406"><ele>533.6</ele><time>2026-04-11T09:38:08.999Z</time></trkpt><trkpt lat="44.911515711802295" lon="9.088294162405838"><ele>534.1999999999999</ele><time>2026-04-11T09:38:10.999Z</time></trkpt><trkpt lat="44.91141993577637" lon="9.088280896439638"><ele>534.8</ele><time>2026-04-11T09:38:12.999Z</time></trkpt><trkpt lat="44.91134669931367" lon="9.088272244266255"><ele>535.4</ele><time>2026-04-11T09:38:14.999Z</time></trkpt><trkpt lat="44.91122627717527" lon="9.08829006942798"><ele>536.0</ele><time>2026-04-11T09:38:16.999Z</time></trkpt><trkpt lat="44.91115448250971" lon="9.088318094627798"><ele>536.0</ele><time>2026-04-11T09:38:19.998Z</time></trkpt><trkpt lat="44.91107555172963" lon="9.088333142220844"><ele>536.0</ele><time>2026-04-11T09:38:22.998Z</time></trkpt><trkpt lat="44.91095721274444" lon="9.0883459108029"><ele>536.0</ele><time>2026-04-11T09:38:33.998Z</time></trkpt><trkpt lat="44.91087308082428" lon="9.088359794017673"><ele>536.0</ele><time>2026-04-11T09:38:35.998Z</time></trkpt><trkpt lat="44.91076905889029" lon="9.088381056356221"><ele>536.0</ele><time>2026-04-11T09:38:37.998Z</time></trkpt><trkpt lat="44.910639709287175" lon="9.088419767177529"><ele>538.1666666666666</ele><time>2026-04-11T09:38:39.998Z</time></trkpt><trkpt lat="44.910556199427845" lon="9.088502122280303"><ele>540.3333333333333</ele><time>2026-04-11T09:38:41.998Z</time></trkpt><trkpt lat="44.910465774351294" lon="9.088566826166808"><ele>542.5</ele><time>2026-04-11T09:38:43.998Z</time></trkpt><trkpt lat="44.910420559139936" lon="9.088640923197618"><ele>544.6666666666666</ele><time>2026-04-11T09:38:45.998Z</time></trkpt><trkpt lat="44.910420549950686" lon="9.088759598091663"><ele>546.8333333333334</ele><time>2026-04-11T09:38:47.998Z</time></trkpt><trkpt lat="44.91043810788819" lon="9.088849444695295"><ele>549.0</ele><time>2026-04-11T09:38:48.998Z</time></trkpt><trkpt lat="44.910457744373055" lon="9.08894587152624"><ele>549.0</ele><time>2026-04-11T09:38:49.998Z</time></trkpt><trkpt lat="44.910475297354864" lon="9.089037143419796"><ele>549.0</ele><time>2026-04-11T09:38:50.998Z</time></trkpt><trkpt lat="44.91049486449706" lon="9.089194528913865"><ele>549.0</ele><time>2026-04-11T09:38:52.997Z</time></trkpt><trkpt lat="44.910499646148644" lon="9.08928875964042"><ele>549.0</ele><time>2026-04-11T09:38:54.997Z</time></trkpt><trkpt lat="44.910512737648766" lon="9.089444472491452"><ele>549.0</ele><time>2026-04-11T09:38:56.997Z</time></trkpt><trkpt lat="44.91053687310805" lon="9.089597525327209"><ele>548.1666666666666</ele><time>2026-04-11T09:38:58.997Z</time></trkpt><trkpt lat="44.91055152403903" lon="9.089693532237137"><ele>547.3333333333334</ele><time>2026-04-11T09:38:59.997Z</time></trkpt><trkpt lat="44.91057849417317" lon="9.089798620955806"><ele>546.5</ele><time>2026-04-11T09:39:00.997Z</time></trkpt><trkpt lat="44.91060794250211" lon="9.089900812085913"><ele>545.6666666666667</ele><time>2026-04-11T09:39:01.997Z</time></trkpt><trkpt lat="44.910640757445435" lon="9.090002546749389"><ele>544.8333333333334</ele><time>2026-04-11T09:39:02.997Z</time></trkpt><trkpt lat="44.91068200413" lon="9.090097531145624"><ele>544.0</ele><time>2026-04-11T09:39:03.997Z</time></trkpt><trkpt lat="44.91072851236538" lon="9.09019270375184"><ele>544.0</ele><time>2026-04-11T09:39:04.997Z</time></trkpt><trkpt lat="44.910774435150635" lon="9.090282375683465"><ele>544.0</ele><time>2026-04-11T09:39:05.997Z</time></trkpt><trkpt lat="44.91084241450445" lon="9.09035235712812"><ele>544.0</ele><time>2026-04-11T09:39:08.997Z</time></trkpt><trkpt lat="44.91089341240699" lon="9.090479778888465"><ele>544.0</ele><time>2026-04-11T09:39:12.997Z</time></trkpt><trkpt lat="44.910960279737495" lon="9.090616573120823"><ele>544.0</ele><time>2026-04-11T09:39:14.997Z</time></trkpt><trkpt lat="44.91102839852312" lon="9.090755881798446"><ele>543.3333333333334</ele><time>2026-04-11T09:39:16.997Z</time></trkpt><trkpt lat="44.911079660431284" lon="9.090820278022965"><ele>542.6666666666667</ele><time>2026-04-11T09:39:17.997Z</time></trkpt><trkpt lat="44.911127183318705" lon="9.090889347484515"><ele>542.0</ele><time>2026-04-11T09:39:18.997Z</time></trkpt><trkpt lat="44.911182250207936" lon="9.09096815697849"><ele>541.3333333333334</ele><time>2026-04-11T09:39:19.997Z</time></trkpt><trkpt lat="44.91123449460854" lon="9.091050165247085"><ele>540.6666666666666</ele><time>2026-04-11T09:39:20.997Z</time></trkpt><trkpt lat="44.911289200105735" lon="9.091132881842801"><ele>540.0</ele><time>2026-04-11T09:39:21.997Z</time></trkpt><trkpt lat="44.911353379939" lon="9.091210076134528"><ele>540.0</ele><time>2026-04-11T09:39:22.997Z</time></trkpt><trkpt lat="44.911419233372264" lon="9.091289685026327"><ele>540.0</ele><time>2026-04-11T09:39:23.997Z</time></trkpt><trkpt lat="44.91147957341091" lon="9.091360262550923"><ele>540.0</ele><time>2026-04-11T09:39:24.997Z</time></trkpt><trkpt lat="44.91154742993766" lon="9.091423219724163"><ele>540.0</ele><time>2026-04-11T09:39:25.997Z</time></trkpt><trkpt lat="44.911608668188435" lon="9.091482723900182"><ele>540.0</ele><time>2026-04-11T09:39:27.996Z</time></trkpt></trkseg></trk></gpx>